Santo Hipolito, Brazil
Current Conditions -  °F | °C
As of 10:00 PM on Monday 22 Dec 2014 (Local Time) from SBLS Reporting Station
Few Clouds Few Clouds  
Wind Chill: 75°   Ceiling: Unl
Heat Index: 75°   Visibility: 6mi
Dew Point: 68°   Wind: 7mph
Humidity: 78%   Direction: 60°ENE
Pressure: 30.03"   Gusts: NA
Location:  18.3°S, 44.22°W
Report Text: SBLS 230000Z 06006KT 020V100 9999 FEW027 24/20 Q1017
Loading
Personal Weather Stations






























Interactive Weather Map New forecast layout! Learn more

10-Day Weather Forecast

Advertisements
Track Severe Weather on mobile